createdAt,value
2019-02-22T00:00:11.885Z,72.87
2019-02-22T00:02:40.738Z,72.58
2019-02-22T00:05:09.779Z,72.41
2019-02-22T00:07:38.780Z,72.30
2019-02-22T00:10:07.897Z,72.31
2019-02-22T00:12:36.758Z,72.50
2019-02-22T00:15:06.418Z,72.33
2019-02-22T00:17:35.357Z,72.25
2019-02-22T00:20:05.610Z,72.08
2019-02-22T00:22:34.537Z,72.03
2019-02-22T00:25:03.578Z,72.00
2019-02-22T00:27:32.497Z,72.12
2019-02-22T00:30:01.388Z,72.01
2019-02-22T00:32:30.478Z,71.98
2019-02-22T00:34:59.356Z,71.78
2019-02-22T00:37:28.405Z,71.61
2019-02-22T00:42:43.899Z,71.61
2019-02-22T00:45:12.779Z,71.59
2019-02-22T00:47:41.721Z,71.54
2019-02-22T00:50:10.641Z,71.49
2019-02-22T00:52:39.519Z,71.82
2019-02-22T00:55:08.660Z,71.66
2019-02-22T00:57:37.543Z,71.64
2019-02-22T01:00:09.100Z,71.77
2019-02-22T01:02:38.121Z,71.78
2019-02-22T01:05:07.280Z,71.84
2019-02-22T01:07:36.302Z,72.01
2019-02-22T01:10:06.049Z,71.99
2019-02-22T01:12:35.061Z,72.05
2019-02-22T01:15:04.540Z,72.08
2019-02-22T01:17:34.162Z,72.24
2019-02-22T01:20:03.024Z,72.29
2019-02-22T01:22:31.940Z,72.31
2019-02-22T01:25:00.821Z,72.39
2019-02-22T01:27:29.801Z,72.46
2019-02-22T01:29:58.680Z,72.44
2019-02-22T01:32:27.734Z,72.48
2019-02-22T01:34:56.654Z,72.51
2019-02-22T01:37:25.741Z,72.51
2019-02-22T01:39:54.721Z,72.40
2019-02-22T01:42:23.601Z,72.38
2019-02-22T01:44:52.603Z,72.19
2019-02-22T01:47:21.489Z,72.29
2019-02-22T01:49:50.734Z,72.30
2019-02-22T01:52:19.661Z,72.60
2019-02-22T01:54:48.561Z,72.55
2019-02-22T01:57:17.440Z,72.50
2019-02-22T01:59:46.482Z,72.51
2019-02-22T02:02:15.461Z,72.51
2019-02-22T02:04:44.480Z,72.44
2019-02-22T02:07:13.580Z,72.36
2019-02-22T02:09:42.560Z,72.38
2019-02-22T02:12:11.523Z,72.60
2019-02-22T02:14:40.380Z,72.71
2019-02-22T02:17:09.262Z,72.70
2019-02-22T02:19:38.240Z,72.77
2019-02-22T02:22:07.100Z,72.60
2019-02-22T02:24:36.440Z,72.47
2019-02-22T02:27:05.621Z,72.35
2019-02-22T02:29:34.600Z,72.37
2019-02-22T02:32:03.501Z,72.56
2019-02-22T02:34:32.361Z,72.57
2019-02-22T02:37:01.301Z,72.65
2019-02-22T02:39:30.200Z,72.90
2019-02-22T02:41:59.081Z,72.90
2019-02-22T02:44:28.022Z,72.81
2019-02-22T02:46:56.922Z,72.86
2019-02-22T02:49:25.840Z,72.69
2019-02-22T02:51:54.772Z,72.50
2019-02-22T02:54:23.825Z,72.50
2019-02-22T02:56:52.922Z,72.41
2019-02-22T02:59:21.883Z,72.43
2019-02-22T03:01:50.880Z,72.42
2019-02-22T03:04:20.023Z,72.33
2019-02-22T03:06:50.881Z,72.23
2019-02-22T03:09:19.801Z,72.21
2019-02-22T03:11:48.880Z,72.21
2019-02-22T03:14:18.021Z,72.20
2019-02-22T03:16:47.055Z,72.13
2019-02-22T03:19:15.982Z,72.00
2019-02-22T03:21:44.900Z,71.95
2019-02-22T03:24:13.863Z,72.00
2019-02-22T03:26:42.723Z,72.16
2019-02-22T03:29:11.642Z,72.14
2019-02-22T03:31:40.603Z,72.03
2019-02-22T03:34:09.602Z,72.07
2019-02-22T03:36:38.525Z,72.01
2019-02-22T03:39:07.461Z,71.95
2019-02-22T03:41:36.349Z,71.95
2019-02-22T03:44:05.222Z,71.85
2019-02-22T03:46:34.317Z,71.83
2019-02-22T03:49:03.300Z,71.95
2019-02-22T03:51:32.442Z,71.69
2019-02-22T03:54:01.341Z,71.43
2019-02-22T03:56:30.304Z,70.57
2019-02-22T03:58:59.342Z,69.88
2019-02-22T04:01:28.303Z,69.87
2019-02-22T04:03:57.200Z,68.85
2019-02-22T04:06:26.140Z,68.58
2019-02-22T04:08:55.020Z,68.59
2019-02-22T04:11:23.904Z,68.50
2019-02-22T04:13:52.800Z,68.73
2019-02-22T04:16:21.680Z,68.90
2019-02-22T04:18:50.560Z,69.04
2019-02-22T04:21:19.420Z,69.21
2019-02-22T04:23:48.342Z,69.53
2019-02-22T04:26:17.282Z,69.64
2019-02-22T04:28:46.239Z,69.69
2019-02-22T04:31:15.142Z,69.68
2019-02-22T04:33:44.234Z,69.66
2019-02-22T04:36:13.221Z,69.30
2019-02-22T04:38:42.062Z,68.18
2019-02-22T04:41:11.061Z,68.31
2019-02-22T04:43:39.920Z,68.20
2019-02-22T04:46:08.921Z,68.24
2019-02-22T04:48:37.942Z,68.58
2019-02-22T04:51:07.100Z,68.67
2019-02-22T04:53:36.280Z,68.48
2019-02-22T04:56:05.246Z,67.35
2019-02-22T04:58:34.243Z,65.54
2019-02-22T05:01:03.101Z,66.22
2019-02-22T05:03:32.123Z,66.52
2019-02-22T05:06:01.044Z,65.99
2019-02-22T05:08:29.919Z,66.00
2019-02-22T05:10:58.957Z,66.82
2019-02-22T05:13:27.903Z,67.37
2019-02-22T05:15:56.898Z,67.36
2019-02-22T05:18:25.781Z,66.97
2019-02-22T05:20:54.688Z,66.76
2019-02-22T05:23:23.599Z,66.43
2019-02-22T05:25:52.523Z,66.34
2019-02-22T05:28:21.420Z,67.04
2019-02-22T05:30:50.285Z,66.93
2019-02-22T05:33:19.241Z,67.25
2019-02-22T05:35:48.118Z,67.16
2019-02-22T05:38:17.052Z,67.33
2019-02-22T05:40:45.906Z,67.56
2019-02-22T05:43:14.841Z,67.76
2019-02-22T05:45:43.803Z,67.60
2019-02-22T05:48:12.759Z,67.55
2019-02-22T05:50:41.660Z,67.69
2019-02-22T05:53:10.521Z,67.16
2019-02-22T05:55:39.423Z,67.00
2019-02-22T05:58:08.300Z,67.25
2019-02-22T06:00:37.283Z,67.35
2019-02-22T06:03:06.219Z,66.71
2019-02-22T06:05:35.120Z,66.51
2019-02-22T06:08:04.146Z,66.18
2019-02-22T06:10:33.011Z,65.91
2019-02-22T06:13:02.041Z,66.30
2019-02-22T06:15:31.624Z,66.15
2019-02-22T06:18:00.639Z,65.72
2019-02-22T06:20:29.520Z,65.85
2019-02-22T06:22:58.382Z,65.57
2019-02-22T06:25:27.369Z,64.90
2019-02-22T06:27:56.260Z,65.08
2019-02-22T06:30:25.162Z,64.51
2019-02-22T06:32:54.043Z,64.84
2019-02-22T06:35:22.921Z,64.68
2019-02-22T06:37:51.804Z,64.97
2019-02-22T06:40:20.782Z,64.77
2019-02-22T06:42:49.641Z,64.27
2019-02-22T06:45:18.619Z,64.84
2019-02-22T06:47:47.477Z,64.91
2019-02-22T06:50:16.421Z,65.37
2019-02-22T06:52:45.286Z,65.51
2019-02-22T06:55:14.342Z,65.85
2019-02-22T06:57:43.239Z,65.92
2019-02-22T07:00:13.620Z,65.81
2019-02-22T07:02:42.724Z,65.33
2019-02-22T07:05:11.757Z,65.25
2019-02-22T07:07:40.642Z,65.55
2019-02-22T07:10:11.062Z,65.08
2019-02-22T07:12:44.661Z,65.02
2019-02-22T07:15:12.905Z,64.88
2019-02-22T07:17:41.841Z,64.95
2019-02-22T07:20:11.967Z,65.94
2019-02-22T07:22:40.884Z,65.50
2019-02-22T07:25:11.939Z,65.03
2019-02-22T07:27:40.800Z,64.69
2019-02-22T07:30:11.721Z,64.83
2019-02-22T07:32:40.720Z,63.89
2019-02-22T07:35:10.060Z,63.59
2019-02-22T07:37:38.961Z,63.36
2019-02-22T07:40:08.180Z,63.37
2019-02-22T07:42:37.038Z,63.98
2019-02-22T07:45:09.020Z,64.58
2019-02-22T07:47:38.020Z,64.79
2019-02-22T07:50:09.501Z,64.38
2019-02-22T07:52:38.358Z,64.72
2019-02-22T07:55:08.919Z,64.46
2019-02-22T07:57:39.993Z,65.00
2019-02-22T08:00:11.840Z,65.40
2019-02-22T08:02:40.721Z,65.11
2019-02-22T08:05:09.699Z,65.07
2019-02-22T08:07:39.288Z,64.92
2019-02-22T08:10:08.264Z,65.14
2019-02-22T08:12:37.180Z,65.11
2019-02-22T08:15:08.060Z,65.01
2019-02-22T08:17:37.021Z,65.10
2019-02-22T08:20:08.021Z,64.77
2019-02-22T08:22:36.980Z,63.60
2019-02-22T08:25:07.480Z,64.10
2019-02-22T08:27:36.482Z,63.47
2019-02-22T08:30:07.701Z,63.23
2019-02-22T08:32:36.641Z,63.72
2019-02-22T08:35:06.641Z,63.05
2019-02-22T08:37:35.520Z,62.85
2019-02-22T08:40:05.441Z,62.87
2019-02-22T08:42:34.323Z,62.51
2019-02-22T08:45:03.403Z,62.59
2019-02-22T08:47:32.303Z,62.68
2019-02-22T08:50:01.243Z,63.14
2019-02-22T08:52:30.120Z,62.71
2019-02-22T08:54:59.261Z,62.49
2019-02-22T08:57:28.161Z,62.01
2019-02-22T08:59:57.047Z,62.69
2019-02-22T09:02:26.060Z,62.16
2019-02-22T09:04:54.921Z,61.37
2019-02-22T09:07:24.001Z,60.72
2019-02-22T09:09:52.877Z,60.36
2019-02-22T09:12:21.741Z,58.91
2019-02-22T09:14:50.641Z,59.57
2019-02-22T09:17:19.502Z,56.86
2019-02-22T09:19:48.402Z,56.04
2019-02-22T09:22:22.830Z,55.72
2019-02-22T09:24:47.917Z,55.77
2019-02-22T09:27:16.833Z,55.04
2019-02-22T09:29:45.840Z,55.02
2019-02-22T09:32:14.840Z,55.15
2019-02-22T09:34:46.038Z,54.17
2019-02-22T09:37:14.401Z,54.21
2019-02-22T09:39:43.300Z,53.68
2019-02-22T09:42:12.181Z,53.47
2019-02-22T09:44:41.081Z,52.27
2019-02-22T09:47:09.941Z,52.47
2019-02-22T09:49:38.821Z,51.21
2019-02-22T09:52:07.759Z,50.21
2019-02-22T09:54:36.640Z,49.45
2019-02-22T09:57:05.821Z,48.45
2019-02-22T09:59:34.800Z,48.37
2019-02-22T10:02:03.660Z,47.21
2019-02-22T10:04:32.621Z,44.94
2019-02-22T10:07:01.581Z,39.69
2019-02-22T10:09:30.421Z,38.63
2019-02-22T10:11:59.460Z,35.78
2019-02-22T10:14:28.658Z,34.83
2019-02-22T10:16:57.753Z,33.97
2019-02-22T10:19:26.952Z,32.38
2019-02-22T10:21:57.644Z,32.60
2019-02-22T10:24:26.859Z,31.91
2019-02-22T10:26:55.719Z,30.23
2019-02-22T10:29:25.013Z,28.11
2019-02-22T10:31:54.418Z,28.43
2019-02-22T10:34:23.776Z,27.11
2019-02-22T10:36:53.172Z,28.73
2019-02-22T10:39:22.434Z,29.20
2019-02-22T10:41:51.421Z,30.75
2019-02-22T10:44:20.279Z,32.21
2019-02-22T10:46:49.161Z,31.88
2019-02-22T10:49:18.048Z,32.38
2019-02-22T10:51:47.126Z,31.70
2019-02-22T10:54:16.079Z,30.71
2019-02-22T10:56:44.939Z,30.13
2019-02-22T10:59:13.842Z,30.21
2019-02-22T11:01:42.680Z,29.82
2019-02-22T11:04:11.580Z,30.63
2019-02-22T11:06:40.439Z,32.76
2019-02-22T11:09:09.501Z,31.12
2019-02-22T11:11:38.457Z,31.22
2019-02-22T11:14:07.466Z,29.21
2019-02-22T11:16:36.419Z,28.95
2019-02-22T11:19:05.321Z,28.75
2019-02-22T11:21:34.240Z,27.08
2019-02-22T11:24:03.141Z,26.27
2019-02-22T11:26:32.001Z,27.35
2019-02-22T11:29:00.898Z,26.48
2019-02-22T11:31:29.941Z,27.09
2019-02-22T11:33:58.861Z,28.41
2019-02-22T11:36:27.780Z,28.88
2019-02-22T11:38:56.718Z,30.62
2019-02-22T11:41:26.120Z,29.88
2019-02-22T11:43:55.020Z,30.35
2019-02-22T11:46:23.902Z,30.21
2019-02-22T11:48:52.765Z,29.09
2019-02-22T11:51:21.740Z,28.62
2019-02-22T11:53:50.600Z,27.30
2019-02-22T11:56:19.563Z,26.90
2019-02-22T11:58:48.681Z,26.61
2019-02-22T12:01:17.760Z,27.57
2019-02-22T12:03:46.640Z,26.61
2019-02-22T12:06:15.520Z,25.74
2019-02-22T12:08:44.620Z,25.06
2019-02-22T12:11:13.580Z,25.00
2019-02-22T12:13:42.480Z,24.27
2019-02-22T12:16:11.461Z,24.09
2019-02-22T12:18:40.361Z,23.75
2019-02-22T12:21:09.250Z,23.01
2019-02-22T12:23:38.341Z,22.90
2019-02-22T12:26:07.220Z,24.23
2019-02-22T12:28:36.180Z,23.57
2019-02-22T12:31:05.461Z,22.63
2019-02-22T12:33:34.340Z,23.14
2019-02-22T12:36:03.283Z,23.38
2019-02-22T12:38:32.181Z,22.74
2019-02-22T12:41:01.020Z,21.68
2019-02-22T12:43:29.922Z,21.79
2019-02-22T12:45:58.840Z,21.77
2019-02-22T12:48:27.661Z,22.32
2019-02-22T12:50:56.526Z,23.30
2019-02-22T12:53:25.529Z,23.76
2019-02-22T12:55:54.484Z,25.24
2019-02-22T12:58:23.403Z,25.69
2019-02-22T13:00:52.324Z,25.45
2019-02-22T13:03:21.240Z,26.17
2019-02-22T13:05:50.120Z,24.50
2019-02-22T13:08:19.507Z,24.86
2019-02-22T13:10:48.440Z,23.84
2019-02-22T13:13:17.400Z,23.72
2019-02-22T13:15:46.381Z,24.00
2019-02-22T13:18:15.600Z,24.15
2019-02-22T13:20:44.480Z,23.52
2019-02-22T13:23:13.441Z,23.85
2019-02-22T13:25:42.627Z,25.13
2019-02-22T13:28:11.480Z,24.34
2019-02-22T13:30:40.442Z,23.98
2019-02-22T13:33:09.501Z,24.13
2019-02-22T13:35:38.481Z,24.54
2019-02-22T13:38:07.668Z,24.80
2019-02-22T13:40:36.781Z,24.91
2019-02-22T13:43:05.800Z,24.43
2019-02-22T13:45:34.845Z,24.24
2019-02-22T13:48:03.883Z,24.23
2019-02-22T13:50:32.940Z,25.12
2019-02-22T13:53:01.858Z,24.88
2019-02-22T13:55:30.870Z,24.95
2019-02-22T13:57:59.985Z,24.70
2019-02-22T14:00:28.964Z,23.84
2019-02-22T14:02:57.960Z,24.86
2019-02-22T14:05:27.103Z,25.51
2019-02-22T14:07:56.962Z,26.13
2019-02-22T14:10:26.681Z,26.53
2019-02-22T14:12:55.640Z,26.11
2019-02-22T14:15:24.886Z,26.28
2019-02-22T14:17:54.060Z,26.47
2019-02-22T14:20:23.224Z,26.73
2019-02-22T14:22:52.681Z,25.88
2019-02-22T14:25:21.860Z,25.74
2019-02-22T14:27:50.900Z,26.44
2019-02-22T14:30:20.020Z,26.01
2019-02-22T14:32:49.080Z,26.32
2019-02-22T14:35:18.182Z,25.85
2019-02-22T14:37:47.345Z,25.75
2019-02-22T14:40:16.762Z,25.62
2019-02-22T14:42:45.764Z,25.90
2019-02-22T14:45:14.965Z,26.11
2019-02-22T14:47:44.204Z,26.25
2019-02-22T14:50:15.522Z,26.20
2019-02-22T14:52:44.762Z,26.12
2019-02-22T14:55:14.081Z,26.45
2019-02-22T14:57:45.177Z,25.72
2019-02-22T15:00:16.242Z,27.02
2019-02-22T15:02:45.362Z,26.25
2019-02-22T15:05:15.403Z,26.24
2019-02-22T15:07:44.657Z,27.13
2019-02-22T15:10:13.967Z,26.98
2019-02-22T15:12:43.148Z,27.03
2019-02-22T15:15:17.081Z,27.53
2019-02-22T15:17:59.849Z,27.95
2019-02-22T15:20:29.010Z,27.30
2019-02-22T15:22:58.136Z,27.47
2019-02-22T15:25:27.319Z,26.95
2019-02-22T15:27:56.407Z,26.90
2019-02-22T15:30:25.589Z,27.37
2019-02-22T15:32:54.538Z,27.85
2019-02-22T15:35:23.992Z,28.03
2019-02-22T15:37:53.265Z,28.31
2019-02-22T15:40:22.370Z,28.65
2019-02-22T15:42:51.570Z,28.63
2019-02-22T15:45:20.960Z,28.41
2019-02-22T15:47:50.185Z,29.02
2019-02-22T15:50:19.884Z,29.39
2019-02-22T15:52:50.081Z,29.96
2019-02-22T15:55:19.224Z,30.36
2019-02-22T15:57:48.433Z,31.04
2019-02-22T16:00:26.615Z,31.24
2019-02-22T16:02:55.761Z,31.63
2019-02-22T16:05:26.440Z,32.76
2019-02-22T16:07:55.764Z,33.27
2019-02-22T16:10:24.885Z,33.95
2019-02-22T16:12:54.108Z,34.64
2019-02-22T16:15:23.321Z,35.22
2019-02-22T16:17:52.439Z,35.81
2019-02-22T16:20:21.720Z,36.84
2019-02-22T16:22:51.973Z,37.38
2019-02-22T16:25:21.283Z,38.14
2019-02-22T16:27:50.400Z,39.02
2019-02-22T16:30:21.137Z,39.51
2019-02-22T16:32:50.294Z,39.26
2019-02-22T16:35:19.601Z,39.29
2019-02-22T16:37:48.800Z,39.18
2019-02-22T16:40:17.960Z,39.71
2019-02-22T16:42:47.124Z,40.21
2019-02-22T16:45:16.360Z,40.69
2019-02-22T16:47:45.490Z,40.59
2019-02-22T16:50:15.122Z,40.72
2019-02-22T16:52:45.363Z,40.96
2019-02-22T16:55:17.962Z,41.07
2019-02-22T16:57:47.241Z,41.40
2019-02-22T17:00:17.489Z,41.01
2019-02-22T17:02:47.084Z,40.84
2019-02-22T17:05:17.485Z,41.65
2019-02-22T17:07:46.680Z,41.41
2019-02-22T17:10:15.797Z,41.48
2019-02-22T17:12:45.003Z,41.49
2019-02-22T17:15:15.240Z,41.93
2019-02-22T17:17:44.565Z,41.10
2019-02-22T17:20:15.042Z,41.02
2019-02-22T17:22:44.119Z,41.50
2019-02-22T17:25:20.383Z,41.17
2019-02-22T17:27:49.642Z,41.11
2019-02-22T17:30:20.373Z,41.06
2019-02-22T17:32:49.681Z,41.50
2019-02-22T17:35:20.040Z,41.03
2019-02-22T17:37:49.322Z,41.48
2019-02-22T17:40:24.242Z,41.30
2019-02-22T17:42:53.490Z,41.66
2019-02-22T17:45:22.760Z,41.26
2019-02-22T17:47:52.082Z,41.87
2019-02-22T17:50:21.321Z,41.18
2019-02-22T17:52:50.562Z,41.74
2019-02-22T17:55:19.833Z,41.60
2019-02-22T17:57:49.004Z,41.89
2019-02-22T18:00:19.962Z,41.79
2019-02-22T18:02:49.204Z,41.54
2019-02-22T18:05:18.361Z,41.18
2019-02-22T18:07:47.568Z,41.52
2019-02-22T18:10:16.761Z,41.65
2019-02-22T18:12:45.881Z,42.44
2019-02-22T18:15:17.401Z,41.76
2019-02-22T18:17:47.560Z,41.79
2019-02-22T18:20:16.811Z,41.45
2019-02-22T18:22:46.039Z,41.73
2019-02-22T18:25:15.203Z,41.78
2019-02-22T18:27:44.402Z,42.12
2019-02-22T18:30:16.361Z,41.69
2019-02-22T18:32:45.680Z,41.98
2019-02-22T18:35:14.960Z,42.43
2019-02-22T18:37:44.287Z,42.40
2019-02-22T18:40:20.359Z,42.15
2019-02-22T18:42:49.604Z,42.66
2019-02-22T18:45:18.881Z,42.59
2019-02-22T18:47:48.163Z,42.41
2019-02-22T18:50:17.411Z,42.84
2019-02-22T18:52:46.601Z,42.89
2019-02-22T18:55:15.800Z,43.08
2019-02-22T18:57:45.060Z,43.26
2019-02-22T19:00:17.049Z,43.10
2019-02-22T19:02:48.000Z,43.18
2019-02-22T19:05:17.243Z,42.83
2019-02-22T19:07:46.446Z,43.62
2019-02-22T19:10:17.330Z,42.73
2019-02-22T19:12:46.411Z,42.69
2019-02-22T19:15:16.041Z,43.17
2019-02-22T19:17:45.322Z,42.34
2019-02-22T19:20:16.843Z,42.57
2019-02-22T19:22:46.045Z,42.03
2019-02-22T19:25:15.362Z,41.33
2019-02-22T19:27:46.562Z,41.32
2019-02-22T19:30:20.528Z,41.46
2019-02-22T19:32:49.879Z,41.36
2019-02-22T19:35:19.175Z,41.17
2019-02-22T19:37:48.479Z,41.50
2019-02-22T19:40:23.321Z,41.24
2019-02-22T19:42:52.599Z,41.08
2019-02-22T19:45:21.880Z,40.92
2019-02-22T19:47:51.289Z,40.48
2019-02-22T19:50:21.962Z,41.04
2019-02-22T19:52:51.281Z,41.08
2019-02-22T19:55:21.084Z,41.33
2019-02-22T19:57:50.399Z,40.66
2019-02-22T20:00:20.243Z,41.08
2019-02-22T20:02:49.562Z,41.26
2019-02-22T20:05:18.959Z,40.84
2019-02-22T20:07:48.283Z,41.23
2019-02-22T20:10:22.361Z,40.65
2019-02-22T20:12:51.601Z,41.48
2019-02-22T20:15:20.962Z,41.01
2019-02-22T20:17:54.559Z,41.31
2019-02-22T20:20:22.080Z,41.24
2019-02-22T20:22:51.325Z,41.65
2019-02-22T20:25:22.161Z,41.72
2019-02-22T20:27:51.399Z,41.78
2019-02-22T20:30:20.868Z,41.30
2019-02-22T20:32:50.159Z,41.17
2019-02-22T20:35:24.523Z,41.35
2019-02-22T20:37:53.849Z,41.28
2019-02-22T20:40:23.199Z,41.25
2019-02-22T20:42:52.441Z,41.38
2019-02-22T20:45:21.761Z,41.55
2019-02-22T20:47:51.043Z,41.97
2019-02-22T20:50:20.202Z,41.72
2019-02-22T20:52:49.484Z,42.10
2019-02-22T20:55:18.764Z,42.14
2019-02-22T20:57:48.130Z,42.28
2019-02-22T21:00:19.940Z,41.91
2019-02-22T21:02:49.218Z,42.30
2019-02-22T21:05:18.531Z,42.29
2019-02-22T21:07:47.780Z,43.10
2019-02-22T21:10:18.779Z,42.42
2019-02-22T21:12:47.951Z,42.71
2019-02-22T21:15:17.331Z,42.80
2019-02-22T21:17:46.490Z,42.89
2019-02-22T21:20:18.423Z,42.90
2019-02-22T21:22:47.737Z,43.30
2019-02-22T21:25:16.900Z,43.64
2019-02-22T21:27:46.179Z,44.04
2019-02-22T21:30:20.260Z,44.56
2019-02-22T21:32:49.539Z,44.56
2019-02-22T21:35:18.701Z,44.41
2019-02-22T21:37:47.779Z,44.61
2019-02-22T21:40:17.019Z,45.11
2019-02-22T21:42:46.068Z,45.24
2019-02-22T21:45:16.178Z,45.08
2019-02-22T21:47:54.161Z,45.33
2019-02-22T21:50:17.299Z,45.52
2019-02-22T21:52:46.543Z,45.72
2019-02-22T21:55:16.306Z,46.05
2019-02-22T21:57:45.537Z,46.46
2019-02-22T22:00:23.179Z,46.60
2019-02-22T22:02:52.178Z,46.73
2019-02-22T22:05:21.307Z,46.87
2019-02-22T22:07:50.378Z,46.94
2019-02-22T22:10:19.659Z,46.79
2019-02-22T22:12:48.628Z,47.27
2019-02-22T22:15:17.699Z,47.79
2019-02-22T22:17:46.822Z,47.94
2019-02-22T22:20:15.858Z,48.00
2019-02-22T22:22:44.908Z,47.97
2019-02-22T22:25:15.985Z,47.93
2019-02-22T22:27:44.979Z,47.60
2019-02-22T22:30:15.058Z,47.26
2019-02-22T22:32:44.101Z,47.29
2019-02-22T22:35:18.220Z,47.61
2019-02-22T22:37:47.260Z,47.82
2019-02-22T22:40:16.350Z,47.43
2019-02-22T22:42:45.340Z,47.78
2019-02-22T22:45:17.634Z,47.55
2019-02-22T22:47:46.539Z,47.27
2019-02-22T22:50:16.742Z,47.16
2019-02-22T22:52:45.667Z,47.53
2019-02-22T22:55:14.714Z,47.42
2019-02-22T22:57:43.804Z,47.46
2019-02-22T23:00:53.106Z,47.50
2019-02-22T23:03:22.301Z,47.55
2019-02-22T23:05:51.349Z,47.68
2019-02-22T23:08:20.339Z,47.38
2019-02-22T23:10:49.618Z,47.20
2019-02-22T23:13:18.740Z,47.33
2019-02-22T23:15:47.659Z,47.18
2019-02-22T23:18:16.620Z,47.08
2019-02-22T23:20:45.780Z,47.27
2019-02-22T23:23:14.668Z,47.28
2019-02-22T23:25:43.703Z,47.34
2019-02-22T23:28:12.658Z,47.56
2019-02-22T23:30:41.748Z,47.88
2019-02-22T23:33:10.659Z,48.41
2019-02-22T23:35:39.779Z,48.15
2019-02-22T23:38:08.658Z,48.47
2019-02-22T23:40:37.699Z,48.91
2019-02-22T23:43:06.772Z,49.10
2019-02-22T23:45:35.777Z,49.19
2019-02-22T23:48:04.738Z,49.30
2019-02-22T23:50:33.818Z,49.16
2019-02-22T23:53:02.779Z,49.12
2019-02-22T23:55:31.899Z,49.07
2019-02-22T23:58:00.817Z,49.17
